Time;durP1;ratioP1;P1;durP2;ratioP2;P2;SDS_P1;SDS_P2;PMS_P1;PMS_P2;Temp;Humidity;BMP_temperature;BMP_pressure;BME280_temperature;BME280_humidity;BME280_pressure;Samples;Min_cycle;Max_cycle;Signal;HPM_P1;HPM_P2
2022/02/09 00:02:48;;;;;;;12.38;7.88;;;8.30;99.90;;;;;;5038566;28;20040;-65
2022/02/09 00:05:29;;;;;;;11.68;6.43;;;8.30;99.90;;;;;;5056489;28;20083;-65
2022/02/09 00:10:27;;;;;;;10.32;5.68;;;8.30;99.90;;;;;;5038958;28;20028;-65
2022/02/09 00:13:14;;;;;;;15.02;7.18;;;8.30;99.90;;;;;;5056377;28;20029;-65
2022/02/09 00:15:52;;;;;;;11.73;6.50;;;8.30;99.90;;;;;;5056487;28;20449;-65
2022/02/09 00:24:07;;;;;;;11.00;6.55;;;8.40;99.90;;;;;;5056848;28;20156;-65
2022/02/09 00:27:09;;;;;;;13.48;6.43;;;8.30;99.90;;;;;;5057154;28;20033;-65
2022/02/09 00:30:00;;;;;;;11.10;5.85;;;8.40;99.90;;;;;;5056250;28;20029;-65
2022/02/09 00:32:47;;;;;;;9.90;5.45;;;8.40;99.90;;;;;;5056708;28;20094;-65
2022/02/09 01:44:11;;;;;;;8.57;5.45;;;8.30;99.90;;;;;;5058837;28;20417;-65
2022/02/09 01:55:26;;;;;;;7.70;4.88;;;8.10;99.90;;;;;;5060070;28;20329;-65
2022/02/09 01:57:18;;;;;;;11.45;5.18;;;8.10;99.90;;;;;;5079411;28;20389;-65
2022/02/09 01:59:47;;;;;;;6.80;4.53;;;8.10;99.90;;;;;;5079486;28;20021;-65
2022/02/09 02:02:15;;;;;;;9.35;5.65;;;8.10;99.90;;;;;;5079595;28;20028;-65
2022/02/09 02:04:45;;;;;;;12.95;5.10;;;8.20;99.90;;;;;;5061480;28;20028;-65
2022/02/09 02:07:25;;;;;;;8.50;5.35;;;8.10;99.90;;;;;;5060575;28;20095;-65
2022/02/09 02:10:00;;;;;;;10.82;5.50;;;8.20;99.90;;;;;;5079171;28;20031;-65
2022/02/09 02:12:30;;;;;;;16.98;5.90;;;8.20;99.90;;;;;;5078200;28;20354;-65
2022/02/09 02:15:15;;;;;;;8.52;4.75;;;8.20;99.90;;;;;;5084372;28;20131;-66
2022/02/09 02:17:47;;;;;;;11.27;5.70;;;8.20;99.90;;;;;;5098225;28;20023;-65
2022/02/09 02:20:32;;;;;;;8.00;4.60;;;8.20;99.90;;;;;;5098688;28;20024;-65
2022/02/09 02:25:46;;;;;;;6.88;4.30;;;8.30;99.90;;;;;;5097807;28;20107;-65
2022/02/09 02:28:46;;;;;;;10.23;5.47;;;8.30;99.90;;;;;;5098877;28;20031;-65
2022/02/09 02:42:37;;;;;;;9.20;4.25;;;8.30;99.90;;;;;;5099133;28;20367;-65
2022/02/09 02:47:39;;;;;;;4.90;3.00;;;8.20;99.90;;;;;;5098405;28;20027;-65
2022/02/09 02:56:58;;;;;;;6.50;3.55;;;8.20;99.90;;;;;;5097912;28;20107;-65
2022/02/09 02:59:22;;;;;;;6.88;3.65;;;8.20;99.90;;;;;;5097821;28;20034;-65
2022/02/09 03:09:54;;;;;;;5.75;3.72;;;8.20;99.90;;;;;;5098473;28;20035;-65
2022/02/09 03:19:00;;;;;;;6.95;3.78;;;8.20;99.90;;;;;;5098500;28;20043;-65
2022/02/09 03:20:52;;;;;;;5.75;3.70;;;8.20;99.90;;;;;;5087354;28;20040;-65
2022/02/09 03:26:26;;;;;;;7.88;4.47;;;8.20;99.90;;;;;;5098181;28;20024;-65
2022/02/09 03:42:40;;;;;;;8.63;4.03;;;8.20;99.90;;;;;;5097370;28;20031;-65
2022/02/09 03:50:36;;;;;;;7.72;3.80;;;8.20;99.90;;;;;;5097866;28;20027;-65
2022/02/09 03:56:10;;;;;;;5.88;3.30;;;8.20;99.90;;;;;;5098043;28;20028;-65
2022/02/09 03:58:32;;;;;;;5.20;3.30;;;8.20;99.90;;;;;;5097326;28;20069;-65
2022/02/09 04:00:59;;;;;;;6.95;2.78;;;8.20;99.90;;;;;;5097797;28;20391;-65
2022/02/09 04:03:26;;;;;;;6.00;2.90;;;8.20;99.90;;;;;;5097498;28;20324;-65
2022/02/09 04:05:54;;;;;;;4.28;2.20;;;8.20;99.90;;;;;;5098100;28;20020;-65
2022/02/09 04:08:27;;;;;;;4.07;2.80;;;8.30;99.90;;;;;;5079573;28;20066;-65
2022/02/09 04:11:06;;;;;;;3.78;2.80;;;8.30;99.90;;;;;;5096569;28;20082;-65
2022/02/09 04:13:51;;;;;;;7.95;3.35;;;8.30;99.90;;;;;;5096396;28;20035;-65
2022/02/09 04:38:20;;;;;;;6.07;3.83;;;8.30;99.90;;;;;;5097308;28;20434;-65
2022/02/09 04:56:52;;;;;;;3.70;2.47;;;8.20;99.90;;;;;;5100005;28;20035;-65
2022/02/09 04:59:43;;;;;;;3.47;2.42;;;8.10;99.90;;;;;;5100834;28;20069;-65
2022/02/09 05:05:02;;;;;;;4.57;2.45;;;8.00;99.90;;;;;;5099906;28;20028;-65
2022/02/09 05:27:02;;;;;;;5.30;3.38;;;8.00;99.90;;;;;;5100771;28;20332;-65
2022/02/09 05:29:30;;;;;;;4.70;2.42;;;7.90;99.90;;;;;;5100927;28;20115;-65
2022/02/09 05:31:57;;;;;;;7.57;2.50;;;7.90;99.90;;;;;;5082514;28;20107;-65
2022/02/09 05:34:25;;;;;;;7.10;3.70;;;7.80;99.90;;;;;;5100160;28;20032;-65
2022/02/09 05:36:52;;;;;;;4.60;3.22;;;7.80;99.90;;;;;;5099192;28;20028;-65
2022/02/09 05:39:19;;;;;;;6.30;4.45;;;7.70;99.90;;;;;;5081174;28;20305;-65
2022/02/09 05:41:48;;;;;;;3.97;2.95;;;7.70;99.90;;;;;;5081363;28;20016;-65
2022/02/09 05:44:16;;;;;;;4.50;3.25;;;7.70;99.90;;;;;;5099085;28;20778;-65
2022/02/09 05:52:20;;;;;;;5.10;3.15;;;7.70;99.90;;;;;;5099149;28;20105;-65
2022/02/09 05:59:50;;;;;;;3.50;2.38;;;7.70;99.90;;;;;;5099855;28;20084;-65
2022/02/09 06:02:19;;;;;;;4.40;2.15;;;7.70;99.90;;;;;;5082020;28;20085;-65
2022/02/09 06:04:47;;;;;;;4.55;2.42;;;7.70;99.90;;;;;;5099912;28;20028;-65
2022/02/09 06:07:19;;;;;;;7.00;2.60;;;7.70;99.90;;;;;;5099664;28;20081;-65
2022/02/09 06:09:48;;;;;;;4.43;2.88;;;7.70;99.90;;;;;;5099849;28;20058;-66
2022/02/09 06:12:23;;;;;;;6.45;3.28;;;7.70;99.90;;;;;;5099579;28;20028;-65
2022/02/09 06:20:10;;;;;;;5.03;2.67;;;7.70;99.90;;;;;;5098516;28;20100;-65
2022/02/09 06:22:37;;;;;;;8.05;2.30;;;7.70;99.90;;;;;;5080526;28;20020;-65
2022/02/09 06:25:05;;;;;;;3.85;2.70;;;7.80;99.90;;;;;;5098415;28;20323;-65
2022/02/09 06:27:33;;;;;;;4.43;2.53;;;7.80;99.90;;;;;;5098649;28;20024;-65
2022/02/09 06:30:00;;;;;;;4.00;2.40;;;7.80;99.90;;;;;;5080449;28;20027;-65
2022/02/09 06:32:28;;;;;;;3.97;1.92;;;7.80;99.90;;;;;;5098715;28;20077;-65
2022/02/09 06:34:57;;;;;;;5.93;2.50;;;7.90;99.90;;;;;;5098238;28;20097;-65
2022/02/09 06:37:37;;;;;;;4.38;2.25;;;7.90;99.90;;;;;;5098720;28;20020;-65
2022/02/09 06:40:06;;;;;;;4.93;2.38;;;7.90;99.90;;;;;;5098832;28;20074;-65
2022/02/09 06:42:35;;;;;;;4.20;2.17;;;7.90;99.90;;;;;;5099080;28;20324;-65
2022/02/09 06:45:11;;;;;;;3.78;2.22;;;7.90;99.90;;;;;;5081500;28;20077;-66
2022/02/09 06:47:40;;;;;;;5.10;2.75;;;7.90;99.90;;;;;;5099194;28;20024;-65
2022/02/09 06:50:14;;;;;;;4.35;2.30;;;8.00;99.90;;;;;;5098851;28;20024;-65
2022/02/09 06:52:47;;;;;;;5.60;2.47;;;7.90;99.90;;;;;;5099644;28;20020;-65
2022/02/09 06:55:21;;;;;;;5.90;2.88;;;8.00;99.90;;;;;;5099111;28;20031;-65
2022/02/09 07:00:19;;;;;;;4.85;2.58;;;7.90;99.90;;;;;;5097755;28;20077;-66
2022/02/09 07:02:46;;;;;;;6.03;3.40;;;8.00;99.90;;;;;;5079698;28;20031;-65
2022/02/09 07:05:14;;;;;;;5.43;2.83;;;8.00;99.90;;;;;;5097686;28;20024;-65
2022/02/09 07:07:42;;;;;;;9.52;3.03;;;8.00;99.90;;;;;;5097503;28;20097;-66
2022/02/09 07:10:11;;;;;;;5.43;3.08;;;8.00;99.90;;;;;;5097951;28;20020;-66
2022/02/09 07:12:39;;;;;;;4.28;2.70;;;8.00;99.90;;;;;;5096854;28;20031;-65
2022/02/09 07:15:09;;;;;;;5.22;2.70;;;8.00;99.90;;;;;;5097340;28;20044;-65
2022/02/09 07:17:38;;;;;;;4.35;2.75;;;7.90;99.90;;;;;;5097277;28;20078;-65
2022/02/09 07:20:23;;;;;;;4.28;2.67;;;7.80;99.90;;;;;;5098262;28;20021;-66
2022/02/09 07:22:54;;;;;;;5.43;3.10;;;7.80;99.90;;;;;;5098750;28;20012;-66
2022/02/09 07:25:31;;;;;;;6.50;3.60;;;7.80;99.90;;;;;;5081081;28;20343;-65
2022/02/09 07:28:04;;;;;;;6.00;3.13;;;7.70;99.90;;;;;;5098833;28;20024;-65
2022/02/09 07:30:31;;;;;;;6.82;3.65;;;7.70;99.90;;;;;;5098661;28;20024;-65
2022/02/09 07:33:02;;;;;;;6.07;2.95;;;7.70;99.90;;;;;;5080071;28;20089;-65
2022/02/09 07:35:29;;;;;;;4.13;2.53;;;7.60;99.90;;;;;;5098239;28;20024;-69
2022/02/09 07:37:57;;;;;;;3.45;2.08;;;7.60;99.90;;;;;;5098114;28;20020;-70
2022/02/09 07:40:24;;;;;;;3.53;2.03;;;7.60;99.90;;;;;;5079049;28;20112;-68
2022/02/09 07:42:59;;;;;;;3.85;2.30;;;7.60;99.90;;;;;;5062291;28;20419;-67
2022/02/09 07:51:00;;;;;;;7.78;2.90;;;7.70;99.90;;;;;;5097035;28;20055;-68
2022/02/09 07:53:37;;;;;;;3.50;2.30;;;7.70;99.90;;;;;;5097629;28;20021;-68
2022/02/09 07:56:06;;;;;;;4.30;2.10;;;7.80;99.90;;;;;;5096537;28;20043;-68
2022/02/09 07:58:34;;;;;;;3.42;2.15;;;7.80;99.90;;;;;;5096735;28;20516;-69
2022/02/09 08:01:02;;;;;;;2.67;1.55;;;7.80;99.90;;;;;;5097574;28;20024;-68
2022/02/09 08:03:29;;;;;;;2.83;1.77;;;7.80;99.90;;;;;;5097643;28;20020;-68
2022/02/09 08:05:57;;;;;;;2.47;1.65;;;7.90;99.90;;;;;;5097670;28;20024;-68
2022/02/09 08:08:29;;;;;;;2.90;1.88;;;7.90;99.90;;;;;;5097635;28;20023;-68
2022/02/09 08:11:10;;;;;;;2.33;1.42;;;7.90;99.90;;;;;;5097974;28;20042;-68
2022/02/09 08:29:46;;;;;;;3.83;2.13;;;7.90;99.90;;;;;;5101210;28;20136;-68
2022/02/09 08:34:58;;;;;;;2.90;1.50;;;7.90;99.90;;;;;;5100544;28;20335;-65
2022/02/09 08:37:26;;;;;;;3.45;1.60;;;8.00;99.90;;;;;;5100404;28;20028;-66
2022/02/09 08:39:55;;;;;;;2.92;1.67;;;8.00;99.90;;;;;;5082456;28;20089;-66
2022/02/09 08:42:23;;;;;;;2.95;1.85;;;8.00;99.90;;;;;;5101770;28;20102;-65
2022/02/09 08:44:53;;;;;;;3.10;1.80;;;8.10;99.90;;;;;;5101259;28;20017;-65
2022/02/09 08:47:21;;;;;;;3.60;1.63;;;8.10;99.90;;;;;;5101283;28;20024;-65
2022/02/09 08:49:49;;;;;;;2.42;1.63;;;8.20;99.90;;;;;;5101224;28;20023;-65
2022/02/09 08:52:16;;;;;;;4.15;1.80;;;8.30;99.90;;;;;;5101125;28;20420;-65
2022/02/09 08:54:43;;;;;;;2.50;1.40;;;8.30;99.90;;;;;;5101033;28;20028;-65
2022/02/09 08:57:11;;;;;;;3.05;1.48;;;8.40;99.90;;;;;;5100992;28;20024;-68
2022/02/09 08:59:39;;;;;;;3.17;1.65;;;8.40;99.90;;;;;;5101472;28;20308;-66
2022/02/09 09:02:10;;;;;;;2.05;1.48;;;8.40;99.90;;;;;;5100344;28;20055;-67
2022/02/09 09:04:48;;;;;;;3.53;1.65;;;8.40;99.90;;;;;;5099780;28;20412;-67
2022/02/09 09:07:24;;;;;;;3.65;1.70;;;8.50;99.90;;;;;;5100326;28;20024;-66
2022/02/09 09:10:02;;;;;;;2.13;1.42;;;8.50;99.90;;;;;;5100435;28;20302;-66
2022/02/09 10:03:10;;;;;;;4.10;1.95;;;9.10;99.90;;;;;;5064567;28;20115;-66
2022/02/09 10:34:24;;;;;;;6.03;3.83;;;8.30;99.90;;;;;;5098591;28;20063;-68
2022/02/09 10:37:02;;;;;;;5.82;4.13;;;8.20;99.90;;;;;;5098696;28;20133;-68
2022/02/09 10:39:58;;;;;;;6.93;4.57;;;8.20;99.90;;;;;;5098242;28;20024;-69
2022/02/09 10:42:43;;;;;;;7.05;4.55;;;8.20;99.90;;;;;;5098118;28;20050;-68
2022/02/09 10:45:35;;;;;;;8.20;4.82;;;8.20;99.90;;;;;;5098334;28;20028;-67
2022/02/09 10:48:29;;;;;;;6.25;4.07;;;8.20;99.90;;;;;;5098645;28;20282;-67
2022/02/09 10:51:19;;;;;;;7.93;4.55;;;8.30;99.90;;;;;;5099537;28;20027;-67
2022/02/09 10:54:05;;;;;;;7.05;5.43;;;8.40;99.90;;;;;;5098972;28;20094;-68
2022/02/09 10:56:36;;;;;;;8.27;5.20;;;8.50;99.90;;;;;;5080799;28;20020;-68
2022/02/09 10:59:09;;;;;;;6.47;4.53;;;8.60;99.90;;;;;;5098769;28;20016;-68
2022/02/09 11:01:38;;;;;;;6.47;4.50;;;8.60;99.90;;;;;;5099381;28;20016;-68
2022/02/09 11:04:06;;;;;;;6.68;5.07;;;8.70;99.90;;;;;;5099200;28;20012;-68
2022/02/09 11:06:36;;;;;;;6.72;4.85;;;8.80;99.90;;;;;;5098180;28;20020;-68
2022/02/09 11:09:06;;;;;;;8.38;4.93;;;8.90;99.90;;;;;;5098152;28;20027;-68
2022/02/09 11:11:37;;;;;;;6.57;3.95;;;9.00;99.90;;;;;;5097655;28;20074;-68
2022/02/09 11:14:14;;;;;;;5.70;3.35;;;9.00;99.90;;;;;;5097270;28;20024;-68
2022/02/09 11:16:57;;;;;;;6.85;3.55;;;9.10;99.90;;;;;;5097251;28;20115;-68
2022/02/09 11:19:37;;;;;;;4.03;2.88;;;9.20;99.90;;;;;;5079416;28;20020;-68
2022/02/09 11:22:23;;;;;;;7.20;2.92;;;9.20;99.90;;;;;;5097593;28;20024;-68
2022/02/09 11:25:13;;;;;;;;;;;9.10;99.90;;;;;;5098245;28;20315;-68
2022/02/09 11:27:47;;;;;;;6.30;3.22;;;9.10;99.90;;;;;;5084584;28;19904;-67
2022/02/09 11:30:34;;;;;;;4.72;2.75;;;9.10;99.90;;;;;;5098258;28;20028;-68
2022/02/09 11:39:03;;;;;;;4.35;2.92;;;9.00;99.90;;;;;;5097963;28;20039;-67
2022/02/09 11:41:39;;;;;;;4.72;3.08;;;9.00;99.90;;;;;;5097916;28;20040;-68
2022/02/09 11:45:11;;;;;;;5.07;3.22;;;9.00;99.90;;;;;;5098830;28;20059;-68
2022/02/09 11:48:19;;;;;;;5.07;3.65;;;9.00;99.90;;;;;;5097708;28;20085;-68
2022/02/09 11:56:36;;;;;;;7.90;4.93;;;8.70;99.90;;;;;;5096873;28;20073;-68
2022/02/09 11:59:13;;;;;;;6.53;4.60;;;8.60;99.90;;;;;;5096226;28;20055;-72
2022/02/09 12:01:51;;;;;;;9.00;4.97;;;8.50;99.90;;;;;;5094371;28;20024;-67
2022/02/09 12:10:27;;;;;;;5.78;3.65;;;8.50;99.90;;;;;;5096985;28;20034;-68
2022/02/09 12:13:02;;;;;;;6.38;4.32;;;8.60;99.90;;;;;;5097559;28;20020;-67
2022/02/09 12:15:54;;;;;;;;;;;8.60;99.90;;;;;;5098037;28;20048;-71
2022/02/09 12:18:31;;;;;;;7.30;5.07;;;8.60;99.90;;;;;;5079426;28;19916;-67
2022/02/09 12:21:14;;;;;;;7.65;5.15;;;8.60;99.90;;;;;;5098186;28;20043;-67
2022/02/09 12:23:46;;;;;;;8.93;4.78;;;8.60;99.90;;;;;;5097747;28;20099;-69
2022/02/09 12:26:18;;;;;;;7.45;4.90;;;8.50;99.90;;;;;;5097767;28;20016;-68
2022/02/09 12:28:54;;;;;;;6.28;4.25;;;8.40;99.90;;;;;;5097686;28;20034;-68
2022/02/09 12:31:23;;;;;;;;;;;8.40;99.90;;;;;;5098171;28;20016;-68
2022/02/09 12:33:53;;;;;;;7.25;4.65;;;8.50;99.90;;;;;;5096710;28;19911;-68
2022/02/09 12:36:25;;;;;;;7.97;4.80;;;8.50;99.90;;;;;;5096748;28;20032;-68
2022/02/09 12:39:01;;;;;;;7.00;5.15;;;8.60;99.90;;;;;;5096336;28;20024;-68
2022/02/09 12:41:31;;;;;;;6.22;4.55;;;8.60;99.90;;;;;;5097118;28;20104;-68
2022/02/09 12:44:00;;;;;;;8.38;5.07;;;8.70;99.90;;;;;;5095999;28;20031;-68
2022/02/09 12:46:35;;;;;;;8.23;4.10;;;8.70;99.90;;;;;;5096955;28;20016;-68
2022/02/09 12:49:14;;;;;;;7.97;4.95;;;8.80;99.90;;;;;;5078382;28;20455;-68
2022/02/09 12:51:43;;;;;;;11.93;5.65;;;8.80;99.90;;;;;;5078573;28;20027;-68
2022/02/09 12:54:12;;;;;;;8.27;4.90;;;8.80;99.90;;;;;;5096879;28;20016;-68
2022/02/09 12:56:41;;;;;;;7.03;4.72;;;8.70;99.90;;;;;;5079207;28;20025;-67
2022/02/09 12:59:12;;;;;;;10.05;5.95;;;8.70;99.90;;;;;;5079247;28;20107;-68
2022/02/09 13:01:51;;;;;;;9.50;5.00;;;8.70;99.90;;;;;;5097134;28;20021;-67
2022/02/09 13:04:39;;;;;;;7.93;5.32;;;8.70;99.90;;;;;;5097055;28;20387;-68
2022/02/09 13:07:14;;;;;;;8.63;5.35;;;8.60;99.90;;;;;;5079106;28;20028;-68
2022/02/09 13:09:50;;;;;;;9.88;6.10;;;8.60;99.90;;;;;;5079086;28;20025;-68
2022/02/09 13:12:30;;;;;;;7.47;5.22;;;8.60;99.90;;;;;;5100283;28;20024;-68
2022/02/09 13:15:17;;;;;;;7.40;5.88;;;8.50;99.90;;;;;;5099556;28;20044;-68
2022/02/09 13:24:21;;;;;;;9.50;4.93;;;8.60;99.90;;;;;;5099761;28;20332;-68
2022/02/09 13:52:37;;;;;;;8.02;5.43;;;8.40;99.90;;;;;;5100348;28;20084;-68
2022/02/09 14:12:25;;;;;;;7.97;5.03;;;8.40;99.90;;;;;;5098843;28;20028;-68
2022/02/09 14:54:41;;;;;;;4.90;3.90;;;9.20;99.90;;;;;;5077851;28;20033;-66
2022/02/09 14:57:14;;;;;;;7.90;4.25;;;9.20;99.90;;;;;;5078131;28;20047;-66
2022/02/09 15:02:18;;;;;;;6.50;4.57;;;9.10;99.90;;;;;;5078472;28;20052;-66
2022/02/09 15:09:49;;;;;;;9.60;4.38;;;8.90;99.90;;;;;;5078237;28;20055;-66
2022/02/09 15:12:25;;;;;;;6.32;4.35;;;8.90;99.90;;;;;;5079148;28;20107;-66
2022/02/09 15:17:45;;;;;;;6.93;4.75;;;8.80;99.90;;;;;;5097725;28;20028;-66
2022/02/09 15:23:01;;;;;;;8.75;5.45;;;8.70;99.90;;;;;;5097197;28;20052;-66
2022/02/09 15:25:33;;;;;;;7.20;4.97;;;8.60;99.90;;;;;;5080067;28;20020;-66
2022/02/09 15:28:02;;;;;;;7.55;5.00;;;8.60;99.90;;;;;;5079589;28;20389;-66
2022/02/09 15:30:43;;;;;;;7.25;4.70;;;8.60;99.90;;;;;;5080018;28;20031;-66
2022/02/09 15:33:13;;;;;;;6.72;4.97;;;8.60;99.90;;;;;;5096761;28;20024;-66
2022/02/09 15:35:42;;;;;;;6.82;4.68;;;8.60;99.90;;;;;;5097151;28;20074;-66
2022/02/09 15:38:17;;;;;;;7.93;5.28;;;8.60;99.90;;;;;;5097832;28;20016;-66
2022/02/09 15:40:56;;;;;;;6.65;4.97;;;8.60;99.90;;;;;;5081517;28;20107;-66
2022/02/09 15:56:13;;;;;;;8.02;4.18;;;8.60;99.90;;;;;;5097911;28;20022;-66
2022/02/09 16:11:01;;;;;;;9.57;4.18;;;8.50;99.90;;;;;;5096946;28;20036;-67
2022/02/09 16:16:55;;;;;;;6.80;4.32;;;8.40;99.90;;;;;;5096656;28;20050;-67
2022/02/09 16:22:29;;;;;;;6.75;4.00;;;8.40;99.90;;;;;;5097730;28;20044;-66
2022/02/09 16:25:19;;;;;;;6.13;3.95;;;8.40;99.90;;;;;;5097561;28;20024;-66
2022/02/09 16:33:47;;;;;;;7.57;4.38;;;8.40;99.90;;;;;;5097373;28;20055;-66
2022/02/09 16:38:58;;;;;;;5.47;3.17;;;8.40;99.90;;;;;;5097225;28;20028;-66
2022/02/09 16:44:31;;;;;;;4.77;3.20;;;8.40;99.90;;;;;;5096598;28;20474;-66
2022/02/09 16:46:59;;;;;;;6.18;4.03;;;8.40;99.90;;;;;;5100189;28;20051;-66
2022/02/09 16:49:43;;;;;;;5.82;4.05;;;8.40;99.90;;;;;;5100343;28;20085;-66
2022/02/09 16:52:21;;;;;;;4.28;3.15;;;8.40;99.90;;;;;;5082085;28;20024;-66
2022/02/09 16:55:20;;;;;;;12.27;4.63;;;8.30;99.90;;;;;;5100154;28;20392;-66
2022/02/09 17:19:40;;;;;;;7.95;5.18;;;8.10;99.90;;;;;;5080332;28;20036;-66
2022/02/09 17:22:11;;;;;;;7.47;4.40;;;8.10;99.90;;;;;;5079470;28;20017;-66
2022/02/09 17:24:39;;;;;;;9.20;5.30;;;8.10;99.90;;;;;;5061508;28;20016;-66
2022/02/09 17:27:11;;;;;;;9.57;5.22;;;8.10;99.90;;;;;;5079794;28;20492;-66
2022/02/09 17:30:01;;;;;;;8.93;5.05;;;8.10;99.90;;;;;;5079434;28;20024;-66
2022/02/09 17:32:44;;;;;;;11.82;5.78;;;8.10;99.90;;;;;;5078788;28;20332;-66
2022/02/09 17:35:29;;;;;;;13.77;6.57;;;8.10;99.90;;;;;;5079272;28;20104;-66
2022/02/09 17:55:21;;;;;;;9.43;5.03;;;8.10;99.90;;;;;;5079693;28;20356;-66
2022/02/09 17:57:23;;;;;;;9.80;5.53;;;8.10;99.90;;;;;;5078907;28;20036;-66
2022/02/09 18:02:36;;;;;;;8.73;5.45;;;8.10;99.90;;;;;;5079480;28;20070;-66
2022/02/09 18:05:09;;;;;;;8.15;5.13;;;8.10;99.90;;;;;;5079075;28;20016;-66
2022/02/09 18:07:39;;;;;;;9.60;5.53;;;8.10;99.90;;;;;;5079007;28;20459;-66
2022/02/09 18:10:20;;;;;;;10.68;5.38;;;8.10;99.90;;;;;;5078399;28;20029;-66
2022/02/09 18:29:26;;;;;;;11.60;6.22;;;8.20;99.90;;;;;;5099348;28;20024;-66
2022/02/09 18:32:11;;;;;;;15.10;7.25;;;8.20;99.90;;;;;;5081399;28;20380;-66
2022/02/09 18:41:13;;;;;;;13.02;6.65;;;8.20;99.90;;;;;;5099406;28;20019;-65
2022/02/09 18:43:03;;;;;;;13.10;6.95;;;8.20;99.90;;;;;;5098611;28;20329;-66
2022/02/09 18:48:28;;;;;;;14.10;6.80;;;8.20;99.90;;;;;;5097997;28;20020;-66
2022/02/09 19:02:09;;;;;;;10.25;5.70;;;8.20;99.90;;;;;;5097938;28;20116;-66
2022/02/09 19:04:50;;;;;;;15.38;6.13;;;8.20;99.90;;;;;;5097702;28;20024;-66
2022/02/09 19:07:38;;;;;;;10.63;5.78;;;8.20;99.90;;;;;;5080107;28;20388;-66
2022/02/09 19:32:20;;;;;;;11.95;6.03;;;8.20;99.90;;;;;;5097722;28;20100;-66
2022/02/09 19:46:09;;;;;;;13.77;6.22;;;8.20;99.90;;;;;;5097306;28;20046;-66
2022/02/09 19:48:41;;;;;;;10.57;5.85;;;8.20;99.90;;;;;;5097130;28;20044;-66
2022/02/09 19:51:21;;;;;;;12.93;7.30;;;8.20;99.90;;;;;;5098616;28;20020;-66
2022/02/09 19:54:07;;;;;;;9.38;6.13;;;8.20;99.90;;;;;;5097603;28;20459;-66
2022/02/09 19:56:37;;;;;;;12.03;7.10;;;8.20;99.90;;;;;;5098452;28;20020;-66
2022/02/09 19:59:15;;;;;;;13.90;7.80;;;8.20;99.90;;;;;;5097660;28;20024;-66
2022/02/09 20:01:44;;;;;;;13.85;6.40;;;8.20;99.90;;;;;;5098505;28;20023;-66
2022/02/09 20:04:13;;;;;;;11.45;6.22;;;8.20;99.90;;;;;;5098142;28;20027;-66
2022/02/09 20:06:43;;;;;;;12.85;6.97;;;8.20;99.90;;;;;;5097577;28;20095;-66
2022/02/09 20:09:10;;;;;;;13.40;7.30;;;8.20;99.90;;;;;;5096568;28;20030;-66
2022/02/09 20:11:41;;;;;;;10.50;6.18;;;8.20;99.90;;;;;;5078888;28;20030;-66
2022/02/09 20:14:11;;;;;;;10.70;6.40;;;8.20;99.90;;;;;;5096380;28;20089;-66
2022/02/09 20:16:40;;;;;;;12.85;7.15;;;8.20;99.90;;;;;;5096568;28;20051;-66
2022/02/09 20:19:07;;;;;;;12.10;6.43;;;8.20;99.90;;;;;;5079330;28;20032;-66
2022/02/09 20:21:35;;;;;;;10.00;5.45;;;8.20;99.90;;;;;;5103926;28;20016;-66
2022/02/09 20:24:05;;;;;;;11.07;6.65;;;8.20;99.90;;;;;;5103850;28;20107;-66
2022/02/09 20:26:34;;;;;;;10.75;5.80;;;8.20;99.90;;;;;;5103989;28;20458;-66
2022/02/09 20:29:06;;;;;;;11.10;5.75;;;8.20;99.90;;;;;;5103490;28;20028;-66
2022/02/09 20:31:45;;;;;;;13.45;5.93;;;8.10;99.90;;;;;;5104051;28;20032;-66
2022/02/09 20:34:28;;;;;;;10.68;6.25;;;8.10;99.90;;;;;;5104062;28;20099;-66
2022/02/09 20:36:57;;;;;;;12.77;5.90;;;8.10;99.90;;;;;;5104744;28;20024;-66
2022/02/09 20:39:30;;;;;;;14.88;6.28;;;8.10;99.90;;;;;;5104062;28;20427;-66
2022/02/09 20:41:59;;;;;;;11.75;6.20;;;8.10;99.90;;;;;;5104603;28;20024;-66
2022/02/09 20:46:55;;;;;;;11.15;5.82;;;8.10;99.90;;;;;;5104222;28;20026;-66
2022/02/09 20:49:22;;;;;;;15.88;6.80;;;8.00;99.90;;;;;;5103464;28;20047;-66
2022/02/09 20:51:50;;;;;;;16.83;6.95;;;8.00;99.90;;;;;;5103048;28;20020;-66
2022/02/09 20:54:17;;;;;;;10.05;5.75;;;8.00;99.90;;;;;;5103035;28;20328;-66
2022/02/09 20:56:45;;;;;;;14.63;7.30;;;8.00;99.90;;;;;;5103009;28;20441;-66
2022/02/09 20:59:16;;;;;;;16.88;7.32;;;8.00;99.90;;;;;;5084849;28;20081;-66
2022/02/09 21:02:01;;;;;;;11.82;6.45;;;8.00;99.90;;;;;;5102730;28;20023;-66
2022/02/09 21:04:31;;;;;;;14.18;7.57;;;7.90;99.90;;;;;;5103002;28;20043;-66
2022/02/09 21:09:41;;;;;;;15.65;7.60;;;7.90;99.90;;;;;;5102899;28;20024;-66
2022/02/09 21:15:18;;;;;;;14.50;8.52;;;7.90;99.90;;;;;;5103752;28;20034;-66
2022/02/09 21:30:03;;;;;;;25.92;13.40;;;7.90;99.90;;;;;;5103931;28;20032;-66
2022/02/09 21:44:13;;;;;;;18.17;8.93;;;7.80;99.90;;;;;;5099818;28;20112;-66
2022/02/09 21:45:37;;;;;;;21.20;10.30;;;7.70;99.90;;;;;;5069997;28;20431;-66
2022/02/09 21:52:11;;;;;;;24.02;10.25;;;7.60;99.90;;;;;;5099640;28;20040;-66
2022/02/09 21:53:56;;;;;;;24.63;9.23;;;7.60;99.90;;;;;;5094114;28;20036;-66
2022/02/09 22:01:53;;;;;;;16.05;7.55;;;7.60;99.90;;;;;;5100337;28;20026;-66
2022/02/09 22:31:56;;;;;;;14.00;6.53;;;7.50;99.90;;;;;;5098400;28;20036;-66
2022/02/09 22:48:19;;;;;;;19.48;9.52;;;7.50;99.90;;;;;;5098963;28;20039;-66
2022/02/09 22:56:08;;;;;;;27.30;12.25;;;7.50;99.90;;;;;;5098071;28;20035;-66
2022/02/09 22:58:36;;;;;;;22.05;8.90;;;7.50;99.90;;;;;;5097767;28;20020;-66
2022/02/09 23:01:08;;;;;;;15.95;9.02;;;7.50;99.90;;;;;;5097892;28;20424;-66
2022/02/09 23:06:22;;;;;;;11.30;5.28;;;7.40;99.90;;;;;;5098153;28;20020;-66
2022/02/09 23:14:33;;;;;;;8.85;4.30;;;7.50;99.90;;;;;;5097649;28;20028;-66
2022/02/09 23:25:35;;;;;;;7.53;3.85;;;7.60;99.90;;;;;;5098316;28;20088;-66
